Stonington, CT (06378)

4:57 AM EST on January 19, 2017 (GMT -0500)
Masons Island Marina | | Change Station

Elev 30 ft 41.34 °N, 71.96 °W | Updated 9 seconds ago

Overcast
Overcast
36.1 °F
Feels Like 36 °F
N
0.9
Wind Variable Wind from NNW
Gusts 3.0 mph

Today
High -- | Low -- °F
--% Chance of Precip.
Yesterday
High -- | Low -- °F
Precip. -- in
Pressure 30.01 in
Visibility 7.0 miles
Clouds Mostly Cloudy 1300 ft
Overcast 2100 ft
Windchill 36 °F
Dew Point 34 °F
Humidity 94%
Rainfall 0.00 in
Snow Depth Not available.
7:09 AM 4:48 PM
Waning Gibbous, 55% visible
METAR KWST 190953Z AUTO 34004KT 7SM BKN013 OVC021 03/00 A3000 RMK AO2 RAE14 SLP161 P0000 T00280000
Pressure 30.01 in
Visibility 7.0 miles
Clouds Mostly Cloudy 1300 ft
Overcast 2100 ft
Windchill 36 °F
Dew Point 34 °F
Humidity 94%
Rainfall 0.00 in
Snow Depth Not available.
7:09 AM 4:48 PM
Waning Gibbous, 55% visible
METAR KWST 190953Z AUTO 34004KT 7SM BKN013 OVC021 03/00 A3000 RMK AO2 RAE14 SLP161 P0000 T00280000

Get Your Daily Forecast Email!

Thanks for signing up!

Be on the lookout for a verification email in your inbox.

You'll start receiving the daily forecast at 8 AM.

×

10-Day Weather Forecast

Almanac

Astronomy

Jan. 19, 2017 Rise Set
Actual Time
Civil Twilight
Nautical Twilight
Astronomical Twilight
Moon
Length of Visible Light
Length of Day
Tomorrow will be .
, % of the Moon is Illuminated

Today's Extremes

State Highs State Lows

Community

WunderPhotos

Upload Photos

1,962,540 photos uploaded!

WunderBlog® & News

Nearby

Air Quality

  Air Quality AQ Index Pollutant
Not available.

Snow Depth

Station Depth Elevation

Earthquake Activity

City Distance Mag. Time & Date
Minimum magnitude displayed is 2.5.

Coastal Water Temperatures

Place Temperature

Stations

Nearby Weather Stations

Station Location Temp. Windchill Dew Point Humidity Wind Precip. Elev Updated Type
                   

Watches & Warnings

There are currently no watches in effect.